Time;durP1;ratioP1;P1;durP2;ratioP2;P2;SDS_P1;SDS_P2;PMS_P1;PMS_P2;Temp;Humidity;BMP_temperature;BMP_pressure;BME280_temperature;BME280_humidity;BME280_pressure;Samples;Min_cycle;Max_cycle;Signal;HPM_P1;HPM_P2
2023/05/28 00:01:12;;;;;;;;;;;;;;;13.24;34.10;101243.03;4944868;28;98170;-67
2023/05/28 00:03:41;;;;;;;;;;;;;;;13.19;34.37;101241.09;4947683;27;98149;-67
2023/05/28 00:06:07;;;;;;;;;;;;;;;13.13;34.26;101239.44;4946696;27;98034;-71
2023/05/28 00:08:33;;;;;;;;;;;;;;;13.10;34.27;101239.16;4955207;27;98526;-71
2023/05/28 00:10:59;;;;;;;;;;;;;;;13.04;34.25;101241.03;4940467;27;100757;-71
2023/05/28 00:13:29;;;;;;;;;;;;;;;12.97;34.16;101235.06;4944381;27;98100;-69
2023/05/28 00:15:56;;;;;;;;;;;;;;;12.92;34.39;101232.31;4979554;27;98068;-66
2023/05/28 00:18:23;;;;;;;;;;;;;;;12.86;34.36;101226.09;4929570;27;98090;-67
2023/05/28 00:20:50;;;;;;;;;;;;;;;12.79;34.36;101222.81;4929307;27;98404;-71
2023/05/28 00:23:16;;;;;;;;;;;;;;;12.75;34.30;101216.28;4944080;27;97991;-71
2023/05/28 00:25:42;;;;;;;;;;;;;;;12.70;34.39;101224.38;4946123;27;98332;-67
2023/05/28 00:28:08;;;;;;;;;;;;;;;12.65;34.17;101218.94;4960040;27;97965;-66
2023/05/28 00:30:35;;;;;;;;;;;;;;;12.61;34.28;101225.94;4949356;27;98048;-66
2023/05/28 00:33:01;;;;;;;;;;;;;;;12.58;34.35;101229.19;4927061;27;98049;-67
2023/05/28 00:35:27;;;;;;;;;;;;;;;12.53;34.40;101229.97;4945031;28;98041;-66
2023/05/28 00:37:53;;;;;;;;;;;;;;;12.48;34.33;101225.34;4943408;27;98117;-70
2023/05/28 00:40:19;;;;;;;;;;;;;;;12.41;34.46;101230.16;4944847;27;100311;-71
2023/05/28 00:42:46;;;;;;;;;;;;;;;12.37;34.53;101225.53;4927968;27;97795;-66
2023/05/28 00:45:12;;;;;;;;;;;;;;;12.32;34.35;101223.63;4946660;27;98266;-66
2023/05/28 00:47:39;;;;;;;;;;;;;;;12.26;34.53;101225.50;4939303;27;98169;-70
2023/05/28 00:50:07;;;;;;;;;;;;;;;12.20;34.48;101226.50;4943532;28;98412;-68
2023/05/28 00:52:33;;;;;;;;;;;;;;;12.16;34.56;101225.41;4962019;28;98430;-67
2023/05/28 00:54:59;;;;;;;;;;;;;;;12.10;34.52;101207.50;4955649;28;97981;-66
2023/05/28 00:57:25;;;;;;;;;;;;;;;12.05;34.28;101215.59;4946751;27;98290;-70
2023/05/28 00:59:52;;;;;;;;;;;;;;;12.00;34.67;101210.16;4931641;27;98420;-66
2023/05/28 01:02:18;;;;;;;;;;;;;;;11.94;34.55;101212.00;4943965;27;98230;-66
2023/05/28 01:04:45;;;;;;;;;;;;;;;11.91;34.39;101211.72;4945799;27;99769;-72
2023/05/28 01:07:11;;;;;;;;;;;;;;;11.88;34.64;101210.34;4962012;27;98274;-70
2023/05/28 01:09:37;;;;;;;;;;;;;;;11.87;34.64;101214.13;4939197;27;98045;-71
2023/05/28 01:12:04;;;;;;;;;;;;;;;11.85;34.46;101216.25;4944832;27;97969;-70
2023/05/28 01:14:30;;;;;;;;;;;;;;;11.82;34.37;101211.31;4941663;28;99722;-71
2023/05/28 01:16:58;;;;;;;;;;;;;;;11.82;34.54;101205.09;4936535;27;98339;-70
2023/05/28 01:19:26;;;;;;;;;;;;;;;11.81;34.70;101201.59;4943452;27;98157;-70
2023/05/28 01:21:56;;;;;;;;;;;;;;;11.80;34.31;101208.88;4960772;27;98363;-71
2023/05/28 01:24:22;;;;;;;;;;;;;;;11.77;34.81;101209.41;4961590;27;98667;-71
2023/05/28 01:26:48;;;;;;;;;;;;;;;11.76;34.54;101209.66;4944361;27;97988;-67
2023/05/28 01:29:15;;;;;;;;;;;;;;;11.73;34.60;101207.47;4940006;28;98631;-67
2023/05/28 01:31:41;;;;;;;;;;;;;;;11.71;34.68;101204.19;4956576;28;98270;-67
2023/05/28 01:34:08;;;;;;;;;;;;;;;11.69;34.57;101209.06;4952013;28;99224;-70
2023/05/28 01:36:37;;;;;;;;;;;;;;;11.66;34.36;101204.97;4950713;27;99371;-71
2023/05/28 01:39:04;;;;;;;;;;;;;;;11.62;34.63;101200.34;4945396;27;98081;-71
2023/05/28 01:41:30;;;;;;;;;;;;;;;11.58;34.76;101197.34;4960523;27;98617;-71
2023/05/28 01:43:57;;;;;;;;;;;;;;;11.53;34.68;101200.81;4942744;28;97886;-67
2023/05/28 01:46:24;;;;;;;;;;;;;;;11.51;34.67;101205.66;4944593;27;98049;-67
2023/05/28 01:48:50;;;;;;;;;;;;;;;11.48;34.51;101203.47;4931521;28;99197;-71
2023/05/28 01:51:17;;;;;;;;;;;;;;;11.44;34.79;101209.66;4930213;28;97975;-67
2023/05/28 01:53:43;;;;;;;;;;;;;;;11.39;34.79;101204.16;4923475;28;98069;-67
2023/05/28 01:56:10;;;;;;;;;;;;;;;11.35;34.84;101197.66;4926854;27;99152;-71
2023/05/28 01:58:36;;;;;;;;;;;;;;;11.30;34.88;101201.13;4939446;28;99259;-70
2023/05/28 02:01:21;;;;;;;;;;;;;;;11.25;34.92;101201.06;4927805;28;97914;-71
2023/05/28 02:03:47;;;;;;;;;;;;;;;11.20;34.63;101192.91;4956328;27;97902;-70
2023/05/28 02:06:16;;;;;;;;;;;;;;;11.13;35.00;101190.44;4944856;27;98394;-71
2023/05/28 02:08:42;;;;;;;;;;;;;;;11.10;34.69;101193.63;4959464;27;98818;-72
2023/05/28 02:11:09;;;;;;;;;;;;;;;11.07;34.80;101189.53;4942841;28;98222;-67
2023/05/28 02:13:35;;;;;;;;;;;;;;;11.04;35.12;101186.53;4940258;27;99839;-67
2023/05/28 02:16:01;;;;;;;;;;;;;;;11.02;35.03;101188.69;4941013;28;98007;-70
2023/05/28 02:18:27;;;;;;;;;;;;;;;10.99;34.54;101184.59;4956186;27;98033;-66
2023/05/28 02:20:54;;;;;;;;;;;;;;;10.97;35.06;101184.03;4958758;27;98059;-71
2023/05/28 02:23:20;;;;;;;;;;;;;;;10.93;35.10;101177.53;4927201;28;98479;-71
2023/05/28 02:25:48;;;;;;;;;;;;;;;10.89;34.79;101181.78;4938472;27;98229;-67
2023/05/28 02:28:14;;;;;;;;;;;;;;;10.82;34.91;101178.47;4961473;27;99971;-66
2023/05/28 02:30:40;;;;;;;;;;;;;;;10.77;34.84;101183.81;4939443;27;98620;-70
2023/05/28 02:33:06;;;;;;;;;;;;;;;10.72;34.58;101183.72;4927793;28;98381;-71
2023/05/28 02:35:32;;;;;;;;;;;;;;;10.66;34.53;101179.34;4938714;28;120187;-67
2023/05/28 02:37:58;;;;;;;;;;;;;;;10.60;34.86;101175.75;4960719;27;98590;-67
2023/05/28 02:40:25;;;;;;;;;;;;;;;10.57;34.87;101177.09;4940405;28;98503;-71
2023/05/28 02:42:51;;;;;;;;;;;;;;;10.54;35.45;101177.59;4950743;27;98083;-67
2023/05/28 02:45:18;;;;;;;;;;;;;;;10.49;34.78;101174.84;4947358;27;98241;-67
2023/05/28 02:47:44;;;;;;;;;;;;;;;10.45;35.00;101176.41;4960075;27;99669;-70
2023/05/28 02:50:10;;;;;;;;;;;;;;;10.41;34.80;101169.03;4945738;27;100285;-66
2023/05/28 02:52:37;;;;;;;;;;;;;;;10.35;35.08;101168.16;4940231;27;98008;-70
2023/05/28 02:55:03;;;;;;;;;;;;;;;10.33;35.03;101172.97;4930003;27;97959;-66
2023/05/28 02:57:29;;;;;;;;;;;;;;;10.29;35.11;101182.63;4944327;28;98029;-70
2023/05/28 02:59:56;;;;;;;;;;;;;;;10.26;34.83;101183.94;4954315;27;99002;-70
2023/05/28 03:02:22;;;;;;;;;;;;;;;10.23;35.18;101183.59;4942742;27;98269;-70
2023/05/28 03:04:48;;;;;;;;;;;;;;;10.22;35.45;101181.97;4962406;27;98413;-67
2023/05/28 03:07:14;;;;;;;;;;;;;;;10.18;34.54;101178.94;4964054;27;98291;-70
2023/05/28 03:09:41;;;;;;;;;;;;;;;10.15;34.72;101178.63;4946657;27;99050;-69
2023/05/28 03:12:07;;;;;;;;;;;;;;;10.15;35.49;101184.81;4959013;27;98373;-66
2023/05/28 03:14:33;;;;;;;;;;;;;;;10.14;34.83;101183.19;4959117;27;98328;-66
2023/05/28 03:17:00;;;;;;;;;;;;;;;10.13;35.10;101178.84;4929561;28;99448;-70
2023/05/28 03:19:26;;;;;;;;;;;;;;;10.13;34.74;101180.72;4920337;28;98070;-66
2023/05/28 03:21:52;;;;;;;;;;;;;;;10.12;35.20;101177.22;4944233;27;100391;-70
2023/05/28 03:24:19;;;;;;;;;;;;;;;10.12;34.83;101185.31;4940439;28;113027;-70
2023/05/28 03:26:45;;;;;;;;;;;;;;;10.12;35.00;101179.94;4959629;28;98052;-66
2023/05/28 03:29:11;;;;;;;;;;;;;;;10.13;34.80;101186.94;4931053;28;98079;-66
2023/05/28 03:31:45;;;;;;;;;;;;;;;10.14;35.03;101185.06;4957010;27;99687;-70
2023/05/28 03:34:11;;;;;;;;;;;;;;;10.13;34.75;101194.19;4959468;27;99368;-67
2023/05/28 03:36:40;;;;;;;;;;;;;;;10.11;35.00;101190.97;4942488;28;98075;-66
2023/05/28 03:39:07;;;;;;;;;;;;;;;10.08;35.52;101184.19;4942341;27;97904;-66
2023/05/28 03:41:33;;;;;;;;;;;;;;;10.06;34.84;101191.66;4960110;27;98388;-66
2023/05/28 03:44:00;;;;;;;;;;;;;;;10.06;34.93;101191.66;4949398;27;98008;-70
2023/05/28 03:46:26;;;;;;;;;;;;;;;10.05;34.61;101187.34;4942536;28;98288;-66
2023/05/28 03:48:52;;;;;;;;;;;;;;;10.05;34.72;101184.66;4941228;28;98125;-67
2023/05/28 03:51:18;;;;;;;;;;;;;;;10.05;34.73;101181.97;4953138;28;97991;-72
2023/05/28 03:53:44;;;;;;;;;;;;;;;10.06;34.98;101191.66;4945432;27;98162;-71
2023/05/28 03:56:10;;;;;;;;;;;;;;;10.07;34.48;101183.38;4942174;28;99888;-70
2023/05/28 03:58:37;;;;;;;;;;;;;;;10.13;34.73;101186.13;4961639;27;100389;-72
2023/05/28 04:01:03;;;;;;;;;;;;;;;10.17;34.80;101182.69;4944301;28;100641;-68
2023/05/28 04:03:29;;;;;;;;;;;;;;;10.22;35.05;101188.16;4963166;27;98747;-73
2023/05/28 04:05:55;;;;;;;;;;;;;;;10.27;35.05;101190.16;4941646;28;99428;-72
2023/05/28 04:08:21;;;;;;;;;;;;;;;10.28;34.92;101186.38;4931287;28;100037;-71
2023/05/28 04:10:47;;;;;;;;;;;;;;;10.30;34.47;101187.78;4960982;27;97946;-68
2023/05/28 04:13:14;;;;;;;;;;;;;;;10.31;34.38;101196.66;4948440;27;98393;-68
2023/05/28 04:15:40;;;;;;;;;;;;;;;10.35;35.10;101183.53;4943667;27;100025;-68
2023/05/28 04:18:07;;;;;;;;;;;;;;;10.40;34.74;101189.78;4956870;28;98357;-71
2023/05/28 04:20:35;;;;;;;;;;;;;;;10.43;34.43;101193.88;4966941;27;98064;-71
2023/05/28 04:23:02;;;;;;;;;;;;;;;10.46;34.93;101193.38;4932843;27;97966;-70
2023/05/28 04:25:29;;;;;;;;;;;;;;;10.48;35.03;101191.25;4943212;27;97994;-70
2023/05/28 04:27:56;;;;;;;;;;;;;;;10.51;35.08;101196.13;4940167;27;98191;-66
2023/05/28 04:30:23;;;;;;;;;;;;;;;10.57;34.80;101195.13;4934314;27;98099;-70
2023/05/28 04:32:53;;;;;;;;;;;;;;;10.65;34.84;101189.31;4958402;27;99189;-70
2023/05/28 04:35:19;;;;;;;;;;;;;;;10.76;34.94;101188.38;4945001;27;99854;-66
2023/05/28 04:37:45;;;;;;;;;;;;;;;10.85;34.91;101187.94;4945735;28;97962;-70
2023/05/28 04:40:12;;;;;;;;;;;;;;;10.96;35.09;101181.59;4957891;27;98074;-66
2023/05/28 04:42:42;;;;;;;;;;;;;;;11.08;34.78;101184.94;4940921;28;97929;-66
2023/05/28 04:45:09;;;;;;;;;;;;;;;11.19;34.87;101183.19;4973660;27;98183;-66
2023/05/28 04:47:36;;;;;;;;;;;;;;;11.32;34.54;101182.81;4962404;27;98230;-66
2023/05/28 04:50:04;;;;;;;;;;;;;;;11.44;34.55;101179.94;4928890;28;98263;-66
2023/05/28 04:52:32;;;;;;;;;;;;;;;11.57;34.45;101181.41;4941933;28;98363;-70
2023/05/28 04:54:59;;;;;;;;;;;;;;;11.68;34.45;101183.13;4943125;28;98243;-70
2023/05/28 04:57:25;;;;;;;;;;;;;;;11.80;34.40;101178.38;4933883;27;99543;-67
2023/05/28 04:59:51;;;;;;;;;;;;;;;11.94;34.33;101176.88;4944647;27;98616;-71
2023/05/28 05:02:18;;;;;;;;;;;;;;;12.09;34.60;101183.47;4960678;28;98334;-66
2023/05/28 05:04:45;;;;;;;;;;;;;;;12.25;34.36;101179.78;4941329;28;99795;-66
2023/05/28 05:07:12;;;;;;;;;;;;;;;12.43;34.37;101175.84;4924067;28;98330;-69
2023/05/28 05:09:38;;;;;;;;;;;;;;;12.69;34.30;101174.06;4940427;27;98988;-71
2023/05/28 05:12:05;;;;;;;;;;;;;;;12.90;34.12;101166.84;4942279;27;100583;-71
2023/05/28 05:14:31;;;;;;;;;;;;;;;13.13;34.00;101160.16;4961683;27;99235;-70
2023/05/28 05:16:58;;;;;;;;;;;;;;;13.34;33.89;101158.31;4973774;27;98214;-67
2023/05/28 05:19:26;;;;;;;;;;;;;;;13.55;33.88;101153.72;4941074;27;99042;-70
2023/05/28 05:21:52;;;;;;;;;;;;;;;13.74;33.90;101152.91;4958842;27;99781;-70
2023/05/28 05:24:18;;;;;;;;;;;;;;;13.96;33.99;101155.34;4924627;27;98622;-70
2023/05/28 05:26:45;;;;;;;;;;;;;;;14.17;33.68;101156.09;4943338;28;98283;-71
2023/05/28 05:29:11;;;;;;;;;;;;;;;14.38;33.67;101151.44;4954681;27;99070;-67
2023/05/28 05:31:37;;;;;;;;;;;;;;;14.59;33.86;101148.69;4939357;27;98478;-70
2023/05/28 05:34:04;;;;;;;;;;;;;;;14.81;33.35;101154.53;4939702;27;98325;-70
2023/05/28 05:36:30;;;;;;;;;;;;;;;15.04;33.36;101144.94;4941954;27;98162;-71
2023/05/28 05:38:56;;;;;;;;;;;;;;;15.25;33.42;101148.34;4925053;28;99351;-67
2023/05/28 05:41:22;;;;;;;;;;;;;;;15.47;33.59;101154.13;4934623;27;98185;-67
2023/05/28 05:43:49;;;;;;;;;;;;;;;15.71;33.27;101151.53;4942955;28;98426;-67
2023/05/28 05:46:15;;;;;;;;;;;;;;;15.97;33.46;101150.50;4922494;28;97944;-70
2023/05/28 05:48:41;;;;;;;;;;;;;;;16.21;33.28;101148.63;4939741;27;98137;-67
2023/05/28 05:51:07;;;;;;;;;;;;;;;16.52;33.34;101146.34;4945304;27;98308;-67
2023/05/28 05:53:39;;;;;;;;;;;;;;;16.88;33.19;101145.94;4934594;28;98507;-71
2023/05/28 05:56:05;;;;;;;;;;;;;;;17.29;33.35;101146.16;4935871;27;97933;-67
2023/05/28 05:58:32;;;;;;;;;;;;;;;17.73;33.12;101146.81;4935804;27;98531;-68
2023/05/28 06:00:58;;;;;;;;;;;;;;;18.19;33.15;101146.81;4936404;27;98406;-67
2023/05/28 06:03:24;;;;;;;;;;;;;;;18.68;33.12;101144.50;4935423;28;98388;-70
2023/05/28 06:05:51;;;;;;;;;;;;;;;19.28;32.93;101141.53;4937742;27;98645;-68
2023/05/28 06:08:18;;;;;;;;;;;;;;;20.02;32.53;101141.09;4944206;27;98562;-68
2023/05/28 06:10:44;;;;;;;;;;;;;;;20.53;32.45;101140.50;4920606;27;98646;-71
2023/05/28 06:13:11;;;;;;;;;;;;;;;20.84;32.63;101134.94;4936589;28;99800;-68
2023/05/28 06:15:37;;;;;;;;;;;;;;;21.54;32.38;101144.00;4961043;27;98139;-68
2023/05/28 06:18:03;;;;;;;;;;;;;;;22.43;32.07;101135.97;4942198;28;98822;-69
2023/05/28 06:20:30;;;;;;;;;;;;;;;23.16;31.83;101137.63;4944498;27;98618;-68
2023/05/28 06:22:57;;;;;;;;;;;;;;;23.66;31.70;101137.50;4934399;27;98213;-69
2023/05/28 06:25:23;;;;;;;;;;;;;;;24.82;31.28;101135.38;4959270;28;98735;-71
2023/05/28 06:27:49;;;;;;;;;;;;;;;26.32;30.38;101133.16;4949935;27;98480;-69
2023/05/28 06:30:16;;;;;;;;;;;;;;;26.89;30.30;101137.25;4928147;27;98503;-72
2023/05/28 06:32:42;;;;;;;;;;;;;;;27.49;30.54;101139.69;4956387;27;98154;-72
2023/05/28 06:35:08;;;;;;;;;;;;;;;28.79;29.67;101147.03;4922043;28;98906;-71
2023/05/28 06:37:35;;;;;;;;;;;;;;;29.48;29.08;101150.31;4940185;28;98227;-72
2023/05/28 06:40:01;;;;;;;;;;;;;;;29.82;29.07;101139.94;4952599;27;98129;-72
2023/05/28 06:42:27;;;;;;;;;;;;;;;29.92;29.18;101146.00;4966035;27;97946;-68
2023/05/28 06:44:53;;;;;;;;;;;;;;;29.23;29.84;101141.66;4939733;27;98071;-68
2023/05/28 06:47:20;;;;;;;;;;;;;;;28.97;30.47;101139.78;4933465;27;98380;-72
2023/05/28 06:49:47;;;;;;;;;;;;;;;28.82;30.61;101132.41;4945149;28;98133;-72
2023/05/28 06:52:13;;;;;;;;;;;;;;;28.66;30.35;101132.59;4942231;27;98494;-73
2023/05/28 06:54:39;;;;;;;;;;;;;;;28.61;30.39;101127.34;4945032;27;98382;-69
2023/05/28 06:57:06;;;;;;;;;;;;;;;28.78;30.39;101124.03;4958638;27;97912;-72
2023/05/28 06:59:33;;;;;;;;;;;;;;;29.11;30.45;101128.06;4939063;27;98504;-72
2023/05/28 07:01:59;;;;;;;;;;;;;;;29.48;30.02;101124.53;4937438;27;98127;-72
2023/05/28 07:04:25;;;;;;;;;;;;;;;29.84;29.80;101107.03;4939107;27;98635;-73
2023/05/28 07:06:53;;;;;;;;;;;;;;;30.24;29.53;101112.94;4942195;27;98178;-72
2023/05/28 07:09:19;;;;;;;;;;;;;;;30.64;29.50;101113.97;4943433;27;98152;-69
2023/05/28 07:11:47;;;;;;;;;;;;;;;30.95;29.54;101112.56;4940793;27;98587;-69
2023/05/28 07:14:13;;;;;;;;;;;;;;;31.22;29.26;101108.28;4940655;28;98394;-73
2023/05/28 07:16:42;;;;;;;;;;;;;;;31.47;29.29;101105.59;4940031;28;98092;-69
2023/05/28 07:19:08;;;;;;;;;;;;;;;31.69;29.39;101112.00;4943638;28;99184;-69
2023/05/28 07:21:38;;;;;;;;;;;;;;;31.96;29.20;101111.66;4939067;27;99722;-68
2023/05/28 07:24:07;;;;;;;;;;;;;;;32.15;29.03;101111.25;4938387;27;98045;-72
2023/05/28 07:26:34;;;;;;;;;;;;;;;32.39;29.22;101108.81;4940285;27;98260;-73
2023/05/28 07:29:00;;;;;;;;;;;;;;;32.56;29.14;101107.22;4943338;28;98440;-69
2023/05/28 07:31:31;;;;;;;;;;;;;;;32.74;29.24;101107.97;4939489;27;98336;-69
2023/05/28 07:33:57;;;;;;;;;;;;;;;32.89;29.18;101117.84;4958717;27;98162;-69
2023/05/28 07:36:23;;;;;;;;;;;;;;;33.04;28.82;101120.63;4939382;27;97988;-73
2023/05/28 07:38:50;;;;;;;;;;;;;;;33.22;29.03;101110.16;4929166;27;99305;-72
2023/05/28 07:41:17;;;;;;;;;;;;;;;33.36;29.04;101115.66;4958694;28;98572;-72
2023/05/28 07:43:43;;;;;;;;;;;;;;;33.59;29.04;101112.34;4939516;28;98514;-69
2023/05/28 07:46:10;;;;;;;;;;;;;;;33.98;28.43;101125.25;4938262;28;98129;-72
2023/05/28 07:48:37;;;;;;;;;;;;;;;34.44;28.23;101119.22;4960456;27;98310;-69
2023/05/28 07:51:04;;;;;;;;;;;;;;;34.96;28.05;101111.84;4941720;27;97924;-71
2023/05/28 07:53:30;;;;;;;;;;;;;;;35.52;28.07;101103.91;4954073;28;98475;-74
2023/05/28 07:55:56;;;;;;;;;;;;;;;35.84;27.98;101104.19;4940184;28;98435;-74
2023/05/28 07:58:22;;;;;;;;;;;;;;;36.33;27.62;101106.56;4925339;27;98497;-70
2023/05/28 08:00:49;;;;;;;;;;;;;;;36.83;27.50;101103.59;4942992;27;99747;-70
2023/05/28 08:03:15;;;;;;;;;;;;;;;37.13;27.07;101101.75;4937919;27;98143;-74
2023/05/28 08:05:42;;;;;;;;;;;;;;;37.61;27.01;101103.06;4942422;27;98099;-71
2023/05/28 08:08:08;;;;;;;;;;;;;;;38.07;27.26;101099.13;4944500;27;98140;-72
2023/05/28 08:10:34;;;;;;;;;;;;;;;38.57;26.83;101097.00;4957742;27;98960;-72
2023/05/28 08:13:01;;;;;;;;;;;;;;;39.14;26.90;101088.88;4940906;27;98126;-68
2023/05/28 08:15:27;;;;;;;;;;;;;;;39.63;26.56;101088.56;4940077;27;99666;-68
2023/05/28 08:17:53;;;;;;;;;;;;;;;40.12;26.25;101085.28;4939894;27;98339;-68
2023/05/28 08:20:22;;;;;;;;;;;;;;;40.43;26.03;101076.91;4925878;28;98107;-68
2023/05/28 08:22:48;;;;;;;;;;;;;;;40.75;26.16;101084.19;4923525;27;98616;-68
2023/05/28 08:25:15;;;;;;;;;;;;;;;41.19;25.83;101082.09;4956199;27;98673;-74
2023/05/28 08:27:42;;;;;;;;;;;;;;;41.58;25.88;101087.41;4943283;27;98171;-69
2023/05/28 08:30:08;;;;;;;;;;;;;;;41.78;25.95;101075.66;4944856;27;98651;-72
2023/05/28 08:32:35;;;;;;;;;;;;;;;42.01;25.70;101074.28;4941575;27;98220;-72
2023/05/28 08:35:01;;;;;;;;;;;;;;;41.89;25.87;101073.19;4943009;27;97895;-68
2023/05/28 08:37:28;;;;;;;;;;;;;;;41.92;25.85;101075.09;4941297;28;98048;-69
2023/05/28 08:39:55;;;;;;;;;;;;;;;42.19;26.03;101074.31;4959737;27;98087;-69
2023/05/28 08:42:21;;;;;;;;;;;;;;;42.70;25.37;101070.03;4937192;27;100237;-75
2023/05/28 08:44:48;;;;;;;;;;;;;;;43.12;25.55;101070.84;4925251;28;98252;-69
2023/05/28 08:47:14;;;;;;;;;;;;;;;43.27;25.25;101064.44;4937792;27;98146;-74
2023/05/28 08:49:48;;;;;;;;;;;;;;;43.40;25.66;101058.56;4942325;27;103715;-74
2023/05/28 08:52:15;;;;;;;;;;;;;;;43.61;25.68;101063.19;4955115;28;98190;-74
2023/05/28 08:54:42;;;;;;;;;;;;;;;43.80;25.23;101050.44;4955705;27;98032;-74
2023/05/28 08:57:09;;;;;;;;;;;;;;;43.97;25.08;101052.84;4944761;27;98554;-74
2023/05/28 08:59:35;;;;;;;;;;;;;;;44.06;24.99;101053.56;4956572;27;98178;-74
2023/05/28 09:02:03;;;;;;;;;;;;;;;44.09;25.31;101052.56;4940559;27;117085;-69
2023/05/28 09:04:30;;;;;;;;;;;;;;;44.40;25.27;101051.34;4941833;27;98279;-69
2023/05/28 09:06:56;;;;;;;;;;;;;;;44.35;25.15;101046.38;4971985;27;98240;-69
2023/05/28 09:09:23;;;;;;;;;;;;;;;44.40;25.16;101042.06;4921995;27;98208;-75
2023/05/28 09:11:50;;;;;;;;;;;;;;;44.39;25.27;101046.94;4943807;27;99924;-68
2023/05/28 09:14:17;;;;;;;;;;;;;;;44.38;25.20;101041.78;4952923;27;98203;-69
2023/05/28 09:16:44;;;;;;;;;;;;;;;43.59;25.59;101038.16;4942035;28;98364;-69
2023/05/28 09:19:14;;;;;;;;;;;;;;;42.70;26.49;101036.81;4941945;27;98829;-69
2023/05/28 09:21:51;;;;;;;;;;;;;;;42.04;26.94;101031.69;4940542;27;99581;-75
2023/05/28 09:24:18;;;;;;;;;;;;;;;41.61;26.80;101036.38;4942581;27;99019;-69
2023/05/28 09:26:44;;;;;;;;;;;;;;;41.46;27.11;101035.38;4927624;27;98356;-68
2023/05/28 09:29:14;;;;;;;;;;;;;;;41.68;26.64;101038.88;4920135;27;98258;-69
2023/05/28 09:31:40;;;;;;;;;;;;;;;42.17;26.24;101040.00;4934584;27;98359;-68
2023/05/28 09:34:07;;;;;;;;;;;;;;;42.75;25.80;101035.38;4971225;27;98051;-75
2023/05/28 09:36:35;;;;;;;;;;;;;;;43.37;25.30;101023.44;4939099;27;98470;-75
2023/05/28 09:39:09;;;;;;;;;;;;;;;43.91;25.23;101026.41;4962382;27;98266;-75
2023/05/28 09:41:36;;;;;;;;;;;;;;;44.30;24.99;101016.59;4973472;27;98009;-76
2023/05/28 09:44:05;;;;;;;;;;;;;;;44.51;24.82;101025.97;4939810;27;98120;-69
2023/05/28 09:46:35;;;;;;;;;;;;;;;44.94;24.66;101020.75;4939969;27;98122;-69
2023/05/28 09:49:02;;;;;;;;;;;;;;;44.95;24.82;101018.69;4955494;27;98185;-75
2023/05/28 09:51:30;;;;;;;;;;;;;;;45.14;24.69;101019.25;4940028;28;98003;-75
2023/05/28 09:53:58;;;;;;;;;;;;;;;45.37;24.57;101021.13;4939398;27;98301;-70
2023/05/28 09:56:31;;;;;;;;;;;;;;;45.63;24.68;101026.09;4941470;27;98570;-75
2023/05/28 09:58:59;;;;;;;;;;;;;;;45.58;24.25;101013.38;4936223;27;98388;-75
2023/05/28 10:01:41;;;;;;;;;;;;;;;45.76;24.61;101009.47;4935725;27;98438;-75
2023/05/28 10:04:11;;;;;;;;;;;;;;;45.73;24.29;101004.78;4944535;27;98811;-76
2023/05/28 10:06:39;;;;;;;;;;;;;;;45.60;24.58;101007.22;4953254;27;98537;-76
2023/05/28 10:09:06;;;;;;;;;;;;;;;45.60;24.49;101004.38;4940930;27;98735;-75
2023/05/28 10:11:37;;;;;;;;;;;;;;;45.54;24.85;101007.91;4943166;27;99195;-75
2023/05/28 10:14:04;;;;;;;;;;;;;;;45.34;24.92;100996.50;4934116;27;97857;-69
2023/05/28 10:16:31;;;;;;;;;;;;;;;45.09;24.82;100994.38;4940296;27;100054;-76
2023/05/28 10:18:58;;;;;;;;;;;;;;;44.90;25.00;100990.97;4936981;27;98100;-69
2023/05/28 10:21:24;;;;;;;;;;;;;;;44.67;24.88;100990.63;4934998;27;98539;-68
2023/05/28 10:23:52;;;;;;;;;;;;;;;44.56;25.14;100988.34;4928108;27;98720;-76
2023/05/28 10:26:18;;;;;;;;;;;;;;;44.53;25.29;100994.25;4938344;27;99010;-75
2023/05/28 10:28:45;;;;;;;;;;;;;;;44.69;25.19;100984.44;4941915;28;98404;-68
2023/05/28 10:31:12;;;;;;;;;;;;;;;44.75;25.04;100971.13;4924552;28;98133;-75
2023/05/28 10:33:42;;;;;;;;;;;;;;;44.90;24.93;100982.44;4926054;28;98354;-68
2023/05/28 10:36:15;;;;;;;;;;;;;;;45.00;24.89;100983.88;4971375;27;98074;-69
2023/05/28 10:38:53;;;;;;;;;;;;;;;45.09;24.94;100980.16;4957721;28;98103;-69
2023/05/28 10:41:21;;;;;;;;;;;;;;;45.20;24.91;100966.06;4955949;28;99400;-69
2023/05/28 10:43:48;;;;;;;;;;;;;;;45.10;24.84;100970.34;4954752;27;98414;-75
2023/05/28 10:46:24;;;;;;;;;;;;;;;44.94;24.90;100972.44;4953648;27;98084;-69
2023/05/28 10:49:13;;;;;;;;;;;;;;;44.89;24.76;100975.22;4955600;27;98095;-75
2023/05/28 10:52:04;;;;;;;;;;;;;;;44.70;24.85;100969.75;4954442;27;98063;-69
2023/05/28 10:54:30;;;;;;;;;;;;;;;44.64;25.14;100968.06;4925169;27;98566;-75
2023/05/28 10:57:07;;;;;;;;;;;;;;;44.46;25.18;100967.03;4971370;27;98900;-74
2023/05/28 10:59:45;;;;;;;;;;;;;;;44.17;25.23;100970.63;4952727;27;98355;-69
2023/05/28 11:02:13;;;;;;;;;;;;;;;44.02;25.13;100959.31;4944456;27;98171;-69
2023/05/28 11:04:40;;;;;;;;;;;;;;;43.66;25.33;100966.06;4939197;27;98548;-69
2023/05/28 11:07:07;;;;;;;;;;;;;;;43.52;25.39;100958.31;4950481;27;99728;-75
2023/05/28 11:09:33;;;;;;;;;;;;;;;43.42;25.24;100960.38;4944239;27;98561;-74
2023/05/28 11:12:02;;;;;;;;;;;;;;;43.34;25.13;100959.19;4936004;28;98446;-69
2023/05/28 11:14:36;;;;;;;;;;;;;;;43.05;25.25;100963.47;4954520;27;98058;-70
2023/05/28 11:17:06;;;;;;;;;;;;;;;42.79;25.77;100970.84;4955367;27;98214;-69
2023/05/28 11:19:47;;;;;;;;;;;;;;;42.37;25.79;100958.22;4942139;27;98322;-69
2023/05/28 11:22:15;;;;;;;;;;;;;;;42.13;26.11;100957.31;4926345;27;100414;-74
2023/05/28 11:25:04;;;;;;;;;;;;;;;41.89;26.20;100952.31;4941214;28;98226;-74
2023/05/28 11:27:32;;;;;;;;;;;;;;;41.31;26.25;100944.75;4954436;28;98038;-74
2023/05/28 11:29:59;;;;;;;;;;;;;;;40.93;26.55;100945.09;4955516;27;98610;-69
2023/05/28 11:32:29;;;;;;;;;;;;;;;40.70;26.72;100935.91;4974667;27;98499;-69
2023/05/28 11:34:56;;;;;;;;;;;;;;;40.33;26.78;100937.75;4940428;27;98466;-69
2023/05/28 11:37:37;;;;;;;;;;;;;;;39.86;27.34;100933.06;4925074;27;98180;-69
2023/05/28 11:40:10;;;;;;;;;;;;;;;39.62;27.25;100929.09;4953839;27;99664;-70
2023/05/28 11:42:36;;;;;;;;;;;;;;;39.29;27.21;100932.22;4925024;27;98096;-74
2023/05/28 11:45:05;;;;;;;;;;;;;;;39.03;27.55;100923.03;4955247;27;98115;-74
2023/05/28 11:47:35;;;;;;;;;;;;;;;38.77;27.78;100925.81;4956530;27;98374;-69
2023/05/28 11:50:15;;;;;;;;;;;;;;;38.70;27.54;100922.44;4936837;27;98004;-74
2023/05/28 11:52:42;;;;;;;;;;;;;;;38.61;27.07;100917.50;4974143;27;97932;-74
2023/05/28 11:55:10;;;;;;;;;;;;;;;38.45;27.70;100929.66;4937888;27;98418;-70
2023/05/28 11:57:39;;;;;;;;;;;;;;;38.29;27.74;100927.69;4945507;27;97955;-70
2023/05/28 12:00:15;;;;;;;;;;;;;;;38.08;27.67;100931.13;4926191;27;98500;-69
2023/05/28 12:02:48;;;;;;;;;;;;;;;38.01;27.56;100929.31;4961656;27;98130;-73
2023/05/28 12:05:16;;;;;;;;;;;;;;;37.98;27.59;100932.22;4943376;27;98649;-74
2023/05/28 12:07:53;;;;;;;;;;;;;;;37.92;27.36;100920.72;4959673;27;98118;-74
2023/05/28 12:10:21;;;;;;;;;;;;;;;37.89;27.32;100916.00;4960072;27;99245;-74
2023/05/28 12:12:52;;;;;;;;;;;;;;;37.78;27.39;100915.50;4941969;27;98093;-70
2023/05/28 12:15:26;;;;;;;;;;;;;;;37.66;27.40;100917.03;4918047;28;98025;-75
2023/05/28 12:17:58;;;;;;;;;;;;;;;37.59;27.21;100926.44;4941833;27;98242;-69
2023/05/28 12:20:24;;;;;;;;;;;;;;;37.56;27.68;100920.91;4942539;28;98375;-69
2023/05/28 12:23:04;;;;;;;;;;;;;;;37.51;27.19;100927.84;4955270;27;98236;-69
2023/05/28 12:25:42;;;;;;;;;;;;;;;37.48;27.41;100922.31;4950824;28;98606;-70
2023/05/28 12:28:11;;;;;;;;;;;;;;;37.42;27.52;100918.50;4955384;27;98278;-75
2023/05/28 12:30:38;;;;;;;;;;;;;;;37.41;27.83;100914.88;4941876;27;98117;-74
2023/05/28 12:33:04;;;;;;;;;;;;;;;37.42;27.35;100921.31;4940829;27;100441;-70
2023/05/28 12:35:30;;;;;;;;;;;;;;;37.37;27.39;100916.16;4957009;28;98080;-74
2023/05/28 12:37:57;;;;;;;;;;;;;;;37.38;27.45;100923.38;4939227;27;99007;-74